Time;durP1;ratioP1;P1;durP2;ratioP2;P2;SDS_P1;SDS_P2;PMS_P1;PMS_P2;Temp;Humidity;BMP_temperature;BMP_pressure;BME280_temperature;BME280_humidity;BME280_pressure;Samples;Min_cycle;Max_cycle;Signal;HPM_P1;HPM_P2
2021/05/21 00:02:23;;;;;;;6.35;5.53;;;;;;;24.37;38.36;98209.44;5034318;28;20021;-75
2021/05/21 00:04:48;;;;;;;8.90;5.28;;;;;;;24.26;39.13;98211.91;5034320;28;20104;-75
2021/05/21 00:07:14;;;;;;;6.15;5.40;;;;;;;24.34;38.79;98213.19;5033087;28;20053;-75
2021/05/21 00:09:40;;;;;;;9.70;7.72;;;;;;;24.22;38.72;98219.66;5034225;28;20071;-75
2021/05/21 00:12:05;;;;;;;8.65;7.68;;;;;;;23.99;39.21;98219.03;5034183;28;20444;-75
2021/05/21 00:14:31;;;;;;;8.98;8.10;;;;;;;24.20;38.81;98222.16;5034407;28;20057;-75
2021/05/21 00:16:57;;;;;;;9.63;7.97;;;;;;;24.14;38.83;98226.78;5034068;28;20029;-75
2021/05/21 00:19:22;;;;;;;14.07;9.07;;;;;;;24.14;38.95;98227.56;5034327;28;20383;-75
2021/05/21 00:21:48;;;;;;;10.20;8.60;;;;;;;23.77;39.42;98233.13;5033938;28;20029;-75
2021/05/21 00:24:14;;;;;;;12.70;10.27;;;;;;;23.98;39.11;98233.47;5034206;28;20087;-75
2021/05/21 00:26:41;;;;;;;14.02;9.35;;;;;;;24.13;38.52;98239.19;5033936;28;20244;-75
2021/05/21 00:29:07;;;;;;;11.30;9.02;;;;;;;24.02;38.99;98242.44;5032542;28;20044;-75
2021/05/21 00:31:33;;;;;;;12.38;9.75;;;;;;;23.90;39.20;98243.38;5033807;28;20079;-75
2021/05/21 00:33:59;;;;;;;12.75;9.95;;;;;;;23.96;38.97;98247.09;5033678;28;20045;-75
2021/05/21 00:36:25;;;;;;;15.07;10.43;;;;;;;23.90;38.83;98244.13;5033805;28;20083;-75
2021/05/21 00:38:51;;;;;;;14.10;10.60;;;;;;;23.89;38.73;98250.97;5033713;28;20033;-75
2021/05/21 00:41:21;;;;;;;11.35;9.98;;;;;;;23.56;39.53;98256.28;5032410;28;20025;-75
2021/05/21 00:43:46;;;;;;;11.93;8.90;;;;;;;23.66;39.23;98255.09;5034195;28;20470;-75
2021/05/21 00:46:12;;;;;;;11.18;9.23;;;;;;;23.68;39.20;98255.41;5033553;28;20057;-75
2021/05/21 00:48:38;;;;;;;11.82;8.85;;;;;;;23.67;39.15;98253.09;5033406;28;20104;-75
2021/05/21 00:51:03;;;;;;;10.20;9.10;;;;;;;23.74;38.97;98256.34;5033480;28;20101;-75
2021/05/21 00:53:30;;;;;;;10.95;9.20;;;;;;;23.85;38.60;98255.13;5033172;28;20026;-75
2021/05/21 00:55:59;;;;;;;10.18;8.07;;;;;;;23.78;38.67;98256.97;5032145;28;20033;-76
2021/05/21 00:58:26;;;;;;;9.68;7.53;;;;;;;23.75;39.12;98263.47;5033057;28;20036;-75
2021/05/21 01:00:53;;;;;;;7.75;6.70;;;;;;;23.39;39.36;98268.91;5033280;28;20108;-75
2021/05/21 01:03:19;;;;;;;8.45;6.20;;;;;;;23.71;38.76;98257.25;5033149;28;20497;-75
2021/05/21 01:05:45;;;;;;;8.15;6.20;;;;;;;23.49;39.09;98265.69;5032987;28;20032;-75
2021/05/21 01:08:11;;;;;;;7.72;5.05;;;;;;;23.60;39.01;98264.50;5033175;28;20108;-75
2021/05/21 01:10:36;;;;;;;6.25;4.70;;;;;;;23.60;38.74;98262.53;5033185;28;20036;-75
2021/05/21 01:13:02;;;;;;;6.57;4.95;;;;;;;23.58;38.82;98275.31;5031931;28;20076;-75
2021/05/21 01:15:28;;;;;;;4.20;3.08;;;;;;;23.52;38.85;98278.72;5033084;28;20026;-75
2021/05/21 01:17:53;;;;;;;6.68;3.67;;;;;;;23.53;39.03;98276.72;5033016;28;20032;-75
2021/05/21 01:20:19;;;;;;;4.78;3.33;;;;;;;23.50;38.62;98285.97;5033065;28;20025;-75
2021/05/21 01:22:45;;;;;;;6.00;3.38;;;;;;;23.51;38.63;98274.41;5032789;28;20033;-75
2021/05/21 01:25:11;;;;;;;5.43;3.53;;;;;;;23.55;38.64;98285.38;5032803;28;20025;-75
2021/05/21 01:27:36;;;;;;;4.07;2.85;;;;;;;23.60;38.44;98279.25;5048169;28;20080;-75
2021/05/21 01:30:06;;;;;;;4.60;3.10;;;;;;;23.49;38.69;98292.78;5032747;28;20033;-75
2021/05/21 01:32:31;;;;;;;4.18;2.58;;;;;;;23.52;38.48;98289.09;5047901;28;20060;-75
2021/05/21 01:34:58;;;;;;;4.00;2.70;;;;;;;23.57;38.13;98288.47;5032775;28;20057;-74
2021/05/21 01:37:24;;;;;;;3.90;2.58;;;;;;;23.48;38.44;98299.59;5032757;28;20025;-75
2021/05/21 01:39:51;;;;;;;4.00;2.45;;;;;;;23.36;38.56;98297.72;5032667;28;20075;-75
2021/05/21 01:42:16;;;;;;;5.68;2.38;;;;;;;23.45;38.33;98300.53;5032572;28;20087;-75
2021/05/21 01:44:43;;;;;;;3.95;2.35;;;;;;;23.27;38.70;98301.22;5032659;28;20029;-75
2021/05/21 01:47:13;;;;;;;3.90;2.60;;;;;;;23.02;39.11;98302.19;5032860;28;20077;-75
2021/05/21 01:49:40;;;;;;;3.40;2.17;;;;;;;23.02;39.16;98307.75;5032539;28;20025;-75
2021/05/21 01:52:06;;;;;;;3.63;2.40;;;;;;;22.74;39.59;98306.00;5031419;28;20108;-75
2021/05/21 01:54:32;;;;;;;3.42;2.28;;;;;;;22.91;39.26;98310.19;5031002;28;20492;-75
2021/05/21 01:57:00;;;;;;;2.85;2.20;;;;;;;23.02;38.80;98309.75;5032531;28;20108;-75
2021/05/21 01:59:26;;;;;;;3.47;2.50;;;;;;;23.06;38.70;98308.41;5032461;28;20029;-75
2021/05/21 02:01:52;;;;;;;4.03;2.90;;;;;;;23.13;38.39;98308.13;5031151;28;20029;-75
2021/05/21 02:04:40;;;;;;;4.72;3.00;;;;;;;23.32;37.90;98316.56;5032525;28;20053;-75
2021/05/21 02:07:09;;;;;;;2.53;2.17;;;;;;;23.01;38.70;98314.56;5032368;28;20510;-75
2021/05/21 02:09:46;;;;;;;4.72;2.50;;;;;;;23.23;38.25;98318.09;5049345;28;20034;-75
2021/05/21 02:12:12;;;;;;;3.95;2.20;;;;;;;23.08;38.54;98317.06;5036515;28;20551;-75
2021/05/21 02:14:38;;;;;;;3.30;2.50;;;;;;;23.01;38.76;98316.56;5036364;28;20029;-75
2021/05/21 02:17:04;;;;;;;3.63;2.38;;;;;;;23.09;38.48;98318.63;5036303;28;20032;-75
2021/05/21 02:19:30;;;;;;;2.85;2.10;;;;;;;23.07;38.63;98320.31;5036219;28;20025;-75
2021/05/21 02:21:56;;;;;;;2.90;2.33;;;;;;;22.90;38.76;98322.56;5036166;28;20032;-75
2021/05/21 02:24:21;;;;;;;2.65;2.20;;;;;;;23.06;38.52;98321.56;5036189;28;20120;-75
2021/05/21 02:26:47;;;;;;;2.05;1.85;;;;;;;22.97;38.43;98322.25;5036293;28;20053;-75
2021/05/21 02:29:14;;;;;;;3.30;1.80;;;;;;;22.98;38.49;98329.41;5036450;28;20468;-75
2021/05/21 02:31:39;;;;;;;3.47;2.10;;;;;;;23.09;38.36;98329.00;5036154;28;20120;-75
2021/05/21 02:34:05;;;;;;;4.65;2.28;;;;;;;23.03;38.42;98336.38;5035898;28;20372;-75
2021/05/21 02:36:30;;;;;;;1.95;1.67;;;;;;;23.14;38.26;98331.19;5035881;28;20491;-75
2021/05/21 02:38:59;;;;;;;2.63;1.90;;;;;;;23.08;38.48;98333.78;5035963;28;20090;-75
2021/05/21 02:41:25;;;;;;;2.03;1.60;;;;;;;23.19;38.00;98344.50;5036047;28;20071;-75
2021/05/21 02:43:50;;;;;;;2.58;1.63;;;;;;;23.14;38.39;98345.13;5035864;28;20427;-75
2021/05/21 02:46:16;;;;;;;1.88;1.45;;;;;;;23.17;38.26;98353.31;5036050;28;20021;-75
2021/05/21 02:48:41;;;;;;;4.85;1.65;;;;;;;23.24;38.02;98355.84;5035841;28;20518;-75
2021/05/21 02:51:07;;;;;;;2.90;1.40;;;;;;;23.11;38.24;98363.50;5035940;28;20467;-75
2021/05/21 02:53:32;;;;;;;1.23;1.13;;;;;;;23.18;37.79;98360.44;5035711;28;20032;-75
2021/05/21 02:55:58;;;;;;;1.38;1.25;;;;;;;23.20;37.99;98363.56;5035591;28;20025;-75
2021/05/21 02:58:24;;;;;;;3.15;1.20;;;;;;;23.17;37.88;98366.47;5035568;28;20025;-75
2021/05/21 03:00:49;;;;;;;1.30;1.20;;;;;;;23.17;38.17;98363.69;5035563;28;20030;-75
2021/05/21 03:03:15;;;;;;;5.85;1.85;;;;;;;23.23;37.98;98371.00;5035547;28;20029;-75
2021/05/21 03:05:41;;;;;;;1.88;1.00;;;;;;;23.15;38.23;98369.72;5035707;28;20026;-77
2021/05/21 03:08:06;;;;;;;1.10;1.00;;;;;;;23.06;38.32;98377.25;5035781;28;20534;-74
2021/05/21 03:10:32;;;;;;;1.17;1.10;;;;;;;22.99;38.27;98372.72;5035368;28;20057;-74
2021/05/21 03:12:58;;;;;;;4.78;1.00;;;;;;;22.68;38.85;98378.19;5035380;28;20095;-74
2021/05/21 03:15:26;;;;;;;1.83;0.93;;;;;;;22.77;38.75;98385.84;5035305;28;20468;-74
2021/05/21 03:17:52;;;;;;;1.27;0.70;;;;;;;22.76;38.63;98390.63;5035342;28;20025;-75
2021/05/21 03:20:17;;;;;;;3.90;1.00;;;;;;;22.79;38.64;98384.16;5034572;28;20032;-74
2021/05/21 03:22:43;;;;;;;2.00;0.95;;;;;;;22.64;38.85;98383.88;5035063;28;20029;-75
2021/05/21 03:25:10;;;;;;;2.10;0.90;;;;;;;22.66;38.52;98392.53;5035344;28;20124;-74
2021/05/21 03:27:37;;;;;;;1.15;1.05;;;;;;;22.56;38.91;98392.91;5033867;28;20120;-77
2021/05/21 03:30:05;;;;;;;1.10;1.05;;;;;;;22.42;39.25;98394.19;5035424;28;20125;-77
2021/05/21 03:32:31;;;;;;;1.60;1.10;;;;;;;22.52;39.08;98401.41;5034806;28;20033;-75
2021/05/21 03:34:57;;;;;;;1.65;1.20;;;;;;;22.36;39.23;98396.75;5034868;28;20091;-74
2021/05/21 03:37:22;;;;;;;2.88;1.92;;;;;;;22.68;38.51;98411.59;5033697;28;20453;-74
2021/05/21 03:39:48;;;;;;;3.15;1.90;;;;;;;22.70;38.68;98409.91;5034775;28;20467;-74
2021/05/21 03:42:14;;;;;;;1.88;1.40;;;;;;;22.73;38.34;98407.44;5034655;28;20037;-74
2021/05/21 03:44:40;;;;;;;2.70;2.00;;;;;;;22.70;38.55;98412.69;5034761;28;20033;-74
2021/05/21 03:47:06;;;;;;;4.57;2.85;;;;;;;22.72;38.64;98426.16;5034968;28;20018;-74
2021/05/21 03:49:32;;;;;;;4.95;2.58;;;;;;;22.78;38.43;98426.34;5034651;28;20037;-76
2021/05/21 03:52:00;;;;;;;5.10;3.10;;;;;;;22.68;38.60;98425.50;5035266;28;20026;-74
2021/05/21 03:54:26;;;;;;;6.72;3.78;;;;;;;22.45;38.87;98431.47;5050881;28;20087;-74
2021/05/21 03:56:52;;;;;;;11.43;7.53;;;;;;;22.66;38.57;98430.72;5034597;28;20380;-74
2021/05/21 03:59:18;;;;;;;11.88;8.73;;;;;;;22.53;38.92;98435.56;5034732;28;20021;-74
2021/05/21 04:01:48;;;;;;;13.32;8.73;;;;;;;22.48;39.01;98439.69;5034311;28;20451;-74
2021/05/21 04:04:13;;;;;;;16.92;12.38;;;;;;;22.54;38.72;98440.69;5034612;28;20068;-74
2021/05/21 04:06:39;;;;;;;11.23;8.45;;;;;;;22.36;39.20;98446.06;5034603;28;20365;-74
2021/05/21 04:09:06;;;;;;;9.65;6.97;;;;;;;22.44;38.97;98452.94;5034209;28;20025;-74
2021/05/21 04:11:36;;;;;;;9.05;7.22;;;;;;;22.30;39.30;98453.44;5034513;28;20164;-74
2021/05/21 04:14:04;;;;;;;9.90;5.60;;;;;;;22.53;38.61;98455.84;5034254;28;20027;-74
2021/05/21 04:16:30;;;;;;;5.30;3.40;;;;;;;22.56;38.61;98449.34;5032925;28;20021;-74
2021/05/21 04:18:57;;;;;;;3.40;2.25;;;;;;;22.64;38.33;98455.47;5034115;28;20021;-74
2021/05/21 04:21:23;;;;;;;4.47;2.17;;;;;;;22.26;39.12;98461.09;5032661;28;20060;-74
2021/05/21 04:23:48;;;;;;;2.85;1.85;;;;;;;22.36;38.92;98468.31;5034071;28;20053;-74
2021/05/21 04:26:15;;;;;;;3.83;2.00;;;;;;;22.22;39.34;98469.56;5033885;28;20535;-74
2021/05/21 04:28:41;;;;;;;2.78;1.90;;;;;;;22.43;38.77;98468.84;5034069;28;20472;-75
2021/05/21 04:31:07;;;;;;;2.78;1.80;;;;;;;22.58;38.41;98460.81;5033589;28;20036;-74
2021/05/21 04:33:33;;;;;;;2.80;1.85;;;;;;;22.43;38.52;98462.50;5032750;28;20083;-75
2021/05/21 04:35:59;;;;;;;2.33;1.50;;;;;;;22.16;39.35;98471.34;5032611;28;20021;-74
2021/05/21 04:38:25;;;;;;;3.88;1.65;;;;;;;22.39;38.73;98475.78;5033739;28;20025;-75
2021/05/21 04:40:51;;;;;;;3.05;1.20;;;;;;;22.51;38.52;98477.75;5033713;28;20053;-78
2021/05/21 04:43:22;;;;;;;2.42;1.00;;;;;;;22.36;38.90;98485.00;5032896;28;20087;-75
2021/05/21 04:45:47;;;;;;;1.45;0.95;;;;;;;22.35;38.81;98475.09;5032586;28;20053;-75
2021/05/21 04:48:13;;;;;;;2.10;0.95;;;;;;;22.36;38.78;98490.56;5032775;28;20052;-79
2021/05/21 04:50:38;;;;;;;1.92;1.00;;;;;;;22.36;38.89;98476.66;5030808;28;20053;-74
2021/05/21 04:53:04;;;;;;;0.93;0.90;;;;;;;22.43;38.61;98491.09;5033417;28;20499;-76
2021/05/21 04:55:29;;;;;;;2.75;1.00;;;;;;;22.29;38.90;98493.56;5032381;28;20021;-76
2021/05/21 04:57:55;;;;;;;4.05;1.20;;;;;;;22.52;38.46;98504.38;5033258;28;20029;-73
2021/05/21 05:00:20;;;;;;;1.85;1.10;;;;;;;22.08;39.55;98506.94;5033230;28;20033;-74
2021/05/21 05:02:46;;;;;;;6.10;1.40;;;;;;;22.33;38.80;98505.38;5033119;28;20032;-74
2021/05/21 05:05:12;;;;;;;2.60;0.90;;;;;;;22.03;39.45;98513.03;5033517;28;20035;-74
2021/05/21 05:07:37;;;;;;;1.58;0.82;;;;;;;22.19;38.97;98509.38;5033434;28;20029;-76
2021/05/21 05:10:03;;;;;;;2.50;0.90;;;;;;;22.19;39.00;98508.59;5033151;28;20033;-74
2021/05/21 05:12:29;;;;;;;1.35;0.93;;;;;;;22.14;39.07;98516.28;5033036;28;20067;-74
2021/05/21 05:14:54;;;;;;;2.45;1.02;;;;;;;22.18;39.02;98515.41;5033027;28;20034;-74
2021/05/21 05:17:20;;;;;;;0.40;0.40;;;;;;;22.11;39.01;98525.50;5033034;28;20033;-74
2021/05/21 05:19:46;;;;;;;2.08;0.70;;;;;;;21.96;39.45;98538.25;5033023;28;20030;-75
2021/05/21 05:22:12;;;;;;;1.85;0.90;;;;;;;22.20;38.90;98530.41;5032849;28;20480;-74
2021/05/21 05:24:37;;;;;;;0.85;0.75;;;;;;;22.23;38.74;98532.31;5033178;28;20029;-74
2021/05/21 05:27:04;;;;;;;1.75;0.60;;;;;;;22.15;38.81;98536.53;5033075;28;20064;-74
2021/05/21 05:29:30;;;;;;;2.00;0.80;;;;;;;22.35;38.60;98534.31;5032845;28;20022;-74
2021/05/21 05:31:56;;;;;;;2.80;0.52;;;;;;;22.26;38.79;98541.75;5032865;28;20471;-74
2021/05/21 05:34:21;;;;;;;1.02;0.80;;;;;;;22.21;38.77;98539.53;5032640;28;20124;-74
2021/05/21 05:36:47;;;;;;;5.30;1.45;;;;;;;21.88;39.43;98540.47;5032812;28;20034;-73
2021/05/21 05:39:12;;;;;;;0.65;0.55;;;;;;;21.99;39.31;98553.28;5032706;28;20104;-73
2021/05/21 05:41:38;;;;;;;0.65;0.60;;;;;;;21.87;39.44;98554.81;5032577;28;20104;-74
2021/05/21 05:44:04;;;;;;;0.50;0.50;;;;;;;22.13;38.93;98555.66;5032557;28;20649;-77
2021/05/21 05:46:29;;;;;;;1.95;1.00;;;;;;;21.82;39.53;98560.91;5032657;28;20134;-75
2021/05/21 05:48:55;;;;;;;2.08;0.80;;;;;;;22.03;38.97;98565.84;5032660;28;20061;-74
2021/05/21 05:51:20;;;;;;;2.60;0.75;;;;;;;22.10;38.82;98579.56;5032563;28;20057;-74
2021/05/21 05:53:46;;;;;;;2.15;0.82;;;;;;;21.80;39.43;98571.72;5032498;28;20108;-77
2021/05/21 05:56:12;;;;;;;1.77;0.80;;;;;;;21.98;39.12;98571.94;5032558;28;20459;-78
2021/05/21 05:58:39;;;;;;;1.13;0.70;;;;;;;21.92;39.28;98584.09;5032515;28;20030;-76
2021/05/21 06:01:05;;;;;;;1.45;0.80;;;;;;;21.13;40.97;98583.41;5032429;28;20064;-74
2021/05/21 06:03:31;;;;;;;1.77;1.13;;;;;;;21.53;40.05;98583.94;5032393;28;20455;-74
2021/05/21 06:05:57;;;;;;;1.55;0.70;;;;;;;21.63;39.70;98596.00;5032415;28;20044;-74
2021/05/21 06:08:23;;;;;;;2.72;0.80;;;;;;;21.52;40.15;98598.28;5027088;28;20030;-75
2021/05/21 06:10:50;;;;;;;0.85;0.60;;;;;;;21.57;39.91;98603.31;5029929;28;20102;-74
2021/05/21 06:13:16;;;;;;;1.75;0.50;;;;;;;21.53;40.01;98603.41;5030282;28;20117;-76
2021/05/21 06:15:41;;;;;;;0.63;0.50;;;;;;;21.55;39.78;98623.22;5030781;28;20109;-76
2021/05/21 06:18:07;;;;;;;1.88;0.60;;;;;;;21.43;40.27;98614.81;5032181;28;20029;-74
2021/05/21 06:20:34;;;;;;;1.40;0.70;;;;;;;21.71;39.61;98616.03;5032302;28;20030;-74
2021/05/21 06:23:02;;;;;;;4.10;1.27;;;;;;;21.51;40.14;98630.84;5030412;28;20035;-74
2021/05/21 06:28:12;;;;;;;0.82;0.60;;;;;;;21.62;39.91;98635.34;5032469;28;20465;-76
2021/05/21 06:30:38;;;;;;;0.80;0.63;;;;;;;21.78;39.61;98636.09;5032559;28;20028;-74
2021/05/21 06:33:04;;;;;;;1.00;0.52;;;;;;;21.76;39.63;98643.28;5018201;28;20096;-74
2021/05/21 06:35:31;;;;;;;2.42;0.80;;;;;;;21.69;39.76;98643.47;5015877;28;20021;-77
2021/05/21 06:37:56;;;;;;;0.65;0.40;;;;;;;21.74;39.65;98649.28;5014671;28;20056;-77
2021/05/21 06:40:22;;;;;;;2.40;0.70;;;;;;;21.69;39.80;98647.06;5014436;28;20053;-74
2021/05/21 06:42:48;;;;;;;1.63;0.80;;;;;;;21.50;40.02;98659.06;5013316;28;20109;-75
2021/05/21 06:45:14;;;;;;;1.45;0.80;;;;;;;21.68;39.91;98653.03;5015792;28;20748;-76
2021/05/21 06:47:40;;;;;;;1.83;0.60;;;;;;;21.23;40.70;98667.66;5014861;28;20026;-75
2021/05/21 06:50:06;;;;;;;4.88;1.40;;;;;;;21.49;40.10;98655.53;5015851;28;20083;-73
2021/05/21 06:52:32;;;;;;;4.38;0.73;;;;;;;21.56;40.00;98674.78;5015019;28;20035;-76
2021/05/21 06:54:58;;;;;;;1.50;0.80;;;;;;;21.42;40.27;98680.72;5014652;28;20468;-78
2021/05/21 06:57:23;;;;;;;1.83;0.80;;;;;;;21.48;40.20;98672.63;5018818;28;20504;-75
2021/05/21 06:59:49;;;;;;;2.70;0.50;;;;;;;21.59;40.05;98682.25;5018175;28;20094;-75
2021/05/21 07:02:14;;;;;;;8.10;1.52;;;;;;;21.61;39.99;98681.78;5018517;28;20033;-75
2021/05/21 07:04:40;;;;;;;10.13;1.35;;;;;;;21.76;39.54;98687.75;5019078;28;20025;-74
2021/05/21 07:07:06;;;;;;;2.97;0.95;;;;;;;21.77;39.89;98689.34;5018426;28;20040;-75
2021/05/21 07:09:31;;;;;;;1.20;0.57;;;;;;;21.47;40.38;98693.31;5017355;28;20045;-80
2021/05/21 07:11:57;;;;;;;3.58;0.60;;;;;;;21.49;40.24;98701.97;5017267;28;20119;-76
2021/05/21 07:14:23;;;;;;;4.65;0.90;;;;;;;21.08;41.19;98699.78;5019266;28;20548;-75
2021/05/21 07:16:48;;;;;;;1.25;0.73;;;;;;;21.53;40.26;98700.66;5018762;28;20031;-76
2021/05/21 07:19:17;;;;;;;3.40;0.70;;;;;;;21.56;40.26;98708.13;5021363;28;20090;-79
2021/05/21 07:21:43;;;;;;;2.25;0.80;;;;;;;21.58;40.24;98714.03;5033891;28;20025;-77
2021/05/21 07:24:09;;;;;;;2.25;1.00;;;;;;;21.57;40.29;98715.25;5035007;28;20100;-77
2021/05/21 07:26:35;;;;;;;10.13;1.67;;;;;;;21.70;40.13;98722.88;5034824;28;20029;-76
2021/05/21 07:29:01;;;;;;;2.83;0.98;;;;;;;21.79;40.25;98717.47;5035120;28;20032;-75
2021/05/21 07:31:27;;;;;;;6.30;2.78;;;;;;;21.83;39.96;98726.47;5034001;28;20030;-77
2021/05/21 07:33:56;;;;;;;4.43;1.55;;;;;;;21.37;40.91;98728.44;5034206;28;20053;-75
2021/05/21 07:36:23;;;;;;;7.97;1.52;;;;;;;21.66;40.39;98730.50;5034620;28;20067;-75
2021/05/21 07:38:52;;;;;;;5.45;1.27;;;;;;;21.54;40.62;98735.59;5033802;28;20034;-76
2021/05/21 07:41:22;;;;;;;6.72;1.85;;;;;;;21.96;39.87;98732.13;5034110;28;20047;-77
2021/05/21 07:43:48;;;;;;;2.80;1.00;;;;;;;22.00;39.95;98749.50;5033733;28;20549;-78
2021/05/21 07:46:14;;;;;;;2.50;1.10;;;;;;;22.03;39.68;98743.81;5034117;28;20109;-76
2021/05/21 07:48:40;;;;;;;9.18;2.90;;;;;;;22.01;39.83;98751.06;5034665;28;20036;-76
2021/05/21 07:51:06;;;;;;;4.85;2.08;;;;;;;21.73;40.38;98756.13;5034700;28;20026;-77
2021/05/21 07:53:33;;;;;;;2.03;1.00;;;;;;;21.69;40.47;98749.09;5034673;28;20037;-75
2021/05/21 07:56:03;;;;;;;3.80;1.70;;;;;;;21.84;40.22;98767.00;5033883;28;20472;-77
2021/05/21 07:58:29;;;;;;;7.00;3.58;;;;;;;21.85;39.80;98765.78;5032708;28;20108;-77
2021/05/21 08:00:55;;;;;;;7.32;3.55;;;;;;;21.73;40.44;98766.47;5031229;28;20116;-76
2021/05/21 08:03:20;;;;;;;11.02;6.82;;;;;;;21.84;40.18;98773.34;5031518;28;20120;-75
2021/05/21 08:05:47;;;;;;;10.15;7.80;;;;;;;22.07;39.50;98785.47;5032242;28;20469;-75
2021/05/21 08:08:15;;;;;;;10.32;7.05;;;;;;;21.94;39.85;98787.38;5029633;28;20022;-77
2021/05/21 08:10:41;;;;;;;14.95;7.25;;;;;;;21.92;40.15;98787.84;5031073;28;20032;-78
2021/05/21 08:13:06;;;;;;;12.52;7.13;;;;;;;21.94;39.76;98793.72;5032207;28;20025;-78
2021/05/21 08:15:32;;;;;;;8.50;4.45;;;;;;;22.12;39.55;98799.63;5032192;28;20609;-74
2021/05/21 08:17:58;;;;;;;6.25;2.40;;;;;;;21.34;41.09;98815.44;5032004;28;20101;-75
2021/05/21 08:20:23;;;;;;;2.70;1.05;;;;;;;21.50;40.73;98811.91;5034147;28;20022;-75
2021/05/21 08:22:49;;;;;;;5.75;2.28;;;;;;;21.82;40.08;98813.88;5033001;28;20384;-75
2021/05/21 08:25:15;;;;;;;3.38;1.55;;;;;;;21.73;40.17;98814.50;5033996;28;20455;-75
2021/05/21 08:27:41;;;;;;;5.47;2.80;;;;;;;21.78;40.01;98824.31;5033878;28;20108;-74
2021/05/21 08:30:07;;;;;;;7.80;4.93;;;;;;;21.86;40.02;98820.94;5034008;28;20026;-76
2021/05/21 08:32:35;;;;;;;6.60;3.15;;;;;;;21.75;40.28;98830.75;5032950;28;20041;-75
2021/05/21 08:35:01;;;;;;;3.67;1.75;;;;;;;21.69;40.38;98838.03;5033747;28;20029;-76
2021/05/21 08:37:27;;;;;;;3.28;1.63;;;;;;;21.67;40.51;98846.03;5033775;28;20056;-77
2021/05/21 08:39:54;;;;;;;6.28;2.13;;;;;;;22.03;39.96;98840.38;5033157;28;20467;-76
2021/05/21 08:42:21;;;;;;;6.32;2.22;;;;;;;21.83;40.12;98848.81;5032447;28;20029;-75
2021/05/21 08:44:49;;;;;;;6.80;2.50;;;;;;;21.90;39.90;98851.41;5032894;28;20028;-75
2021/05/21 08:47:15;;;;;;;8.90;3.38;;;;;;;22.02;40.13;98859.06;5033604;28;20078;-75
2021/05/21 08:49:41;;;;;;;5.38;2.33;;;;;;;22.06;40.11;98868.06;5031706;28;20025;-77
2021/05/21 08:52:07;;;;;;;6.78;3.28;;;;;;;22.12;39.89;98866.38;5034355;28;20030;-77
2021/05/21 08:54:36;;;;;;;4.28;1.85;;;;;;;22.02;40.00;98867.41;5034544;28;20060;-77
2021/05/21 08:57:06;;;;;;;1.75;1.17;;;;;;;22.09;40.08;98867.25;5036272;28;20029;-77
2021/05/21 08:59:32;;;;;;;3.38;0.93;;;;;;;22.38;39.50;98884.00;5033633;28;20029;-75
2021/05/21 09:01:58;;;;;;;7.18;0.88;;;;;;;22.08;40.08;98887.94;5031722;28;20391;-77
2021/05/21 09:04:48;;;;;;;2.65;0.80;;;;;;;21.76;40.67;98885.13;5033607;28;20054;-77
2021/05/21 09:07:21;;;;;;;4.13;0.90;;;;;;;22.28;39.57;98890.59;5033308;28;20511;-78
2021/05/21 09:09:47;;;;;;;1.10;0.82;;;;;;;22.11;40.00;98889.84;5032376;28;20029;-76
2021/05/21 09:12:13;;;;;;;2.33;1.02;;;;;;;22.26;39.73;98903.41;5031775;28;20034;-76
2021/05/21 09:14:38;;;;;;;4.80;1.25;;;;;;;22.13;40.03;98889.41;5031224;28;20052;-77
2021/05/21 09:17:04;;;;;;;5.35;1.30;;;;;;;22.21;39.98;98909.47;5033058;28;20033;-76
2021/05/21 09:19:30;;;;;;;2.05;0.68;;;;;;;22.44;39.62;98909.28;5030686;28;20022;-77
2021/05/21 09:21:55;;;;;;;1.95;0.65;;;;;;;22.10;39.99;98913.31;5032904;28;20349;-76
2021/05/21 09:24:42;;;;;;;2.22;0.90;;;;;;;22.58;39.24;98908.13;5032033;28;20040;-77
2021/05/21 09:27:09;;;;;;;2.70;1.10;;;;;;;22.34;39.54;98921.47;5033253;28;20455;-77
2021/05/21 09:29:46;;;;;;;0.80;0.55;;;;;;;22.73;39.00;98920.44;5032914;28;20105;-76
2021/05/21 09:32:31;;;;;;;2.67;1.15;;;;;;;22.67;38.88;98906.28;5047647;28;20033;-76
2021/05/21 09:35:12;;;;;;;3.33;0.85;;;;;;;22.64;38.93;98929.41;5032097;28;20361;-76
2021/05/21 09:37:47;;;;;;;1.10;0.60;;;;;;;22.18;39.38;98935.38;5032621;28;20377;-77
2021/05/21 09:40:20;;;;;;;1.98;0.50;;;;;;;22.60;38.78;98937.09;5032823;28;20049;-76
2021/05/21 09:43:00;;;;;;;3.22;1.08;;;;;;;22.83;38.55;98940.88;5028552;28;20026;-77
2021/05/21 09:45:36;;;;;;;2.38;0.60;;;;;;;22.60;38.44;98951.00;5032813;28;20030;-76
2021/05/21 09:48:11;;;;;;;0.88;0.70;;;;;;;22.59;38.68;98943.84;5031503;28;20027;-77
2021/05/21 09:50:50;;;;;;;2.78;1.00;;;;;;;22.24;39.04;98958.69;5032038;28;20089;-77
2021/05/21 09:53:20;;;;;;;2.05;1.02;;;;;;;22.12;39.31;98957.38;5031505;28;20083;-73
2021/05/21 09:55:57;;;;;;;1.00;0.70;;;;;;;22.66;38.20;98957.59;5032660;28;20053;-77
2021/05/21 09:58:40;;;;;;;3.47;0.80;;;;;;;22.54;38.60;98957.53;5031748;28;20036;-76
2021/05/21 10:01:11;;;;;;;2.22;0.80;;;;;;;22.17;38.97;98970.00;5032819;28;20414;-76
2021/05/21 10:03:38;;;;;;;2.10;1.10;;;;;;;22.70;38.20;98975.00;5032519;28;20407;-77
2021/05/21 10:06:04;;;;;;;3.65;1.20;;;;;;;22.67;38.58;98967.53;5031759;28;20064;-76
2021/05/21 10:08:30;;;;;;;5.38;1.30;;;;;;;22.58;38.80;98978.47;5032496;28;20033;-77
2021/05/21 10:10:56;;;;;;;6.53;1.73;;;;;;;22.68;38.81;98987.78;5032498;28;20029;-77
2021/05/21 10:13:22;;;;;;;3.85;1.27;;;;;;;22.79;38.51;98993.06;5029787;28;20030;-76
2021/05/21 10:15:50;;;;;;;2.17;0.98;;;;;;;23.01;37.82;98994.09;5030584;28;20035;-77
2021/05/21 10:18:16;;;;;;;4.65;1.10;;;;;;;22.92;38.29;99000.31;5032223;28;20030;-76
2021/05/21 10:20:43;;;;;;;3.78;1.00;;;;;;;22.80;38.51;98994.63;5032335;28;20029;-75
2021/05/21 10:23:11;;;;;;;2.03;0.90;;;;;;;22.96;38.29;99009.34;5031485;28;20065;-77
2021/05/21 10:25:37;;;;;;;2.10;0.90;;;;;;;22.91;38.47;99009.09;5032325;28;20029;-78
2021/05/21 10:28:06;;;;;;;5.07;2.15;;;;;;;23.27;37.90;99008.91;5031112;28;20116;-77
2021/05/21 10:30:35;;;;;;;3.88;1.10;;;;;;;23.08;38.49;99018.97;5033111;28;20022;-78
2021/05/21 10:33:14;;;;;;;6.32;1.45;;;;;;;23.00;38.40;99031.53;5035542;28;20053;-76
2021/05/21 10:35:40;;;;;;;3.75;1.40;;;;;;;22.95;38.74;99020.91;5035820;28;20025;-76
2021/05/21 10:38:23;;;;;;;1.83;0.95;;;;;;;23.07;38.38;99028.56;5035036;28;20442;-76
2021/05/21 10:41:17;;;;;;;3.03;1.20;;;;;;;23.59;37.43;99035.09;5036309;28;20033;-76
2021/05/21 10:43:51;;;;;;;1.88;0.95;;;;;;;23.43;37.89;99042.31;5034990;28;20048;-78
2021/05/21 10:46:18;;;;;;;5.18;0.93;;;;;;;23.22;37.96;99040.88;5034122;28;20033;-77
2021/05/21 10:49:03;;;;;;;2.92;1.42;;;;;;;23.50;37.76;99049.66;5036024;28;20560;-77
2021/05/21 10:51:48;;;;;;;2.08;0.90;;;;;;;23.59;37.33;99062.97;5035760;28;20083;-78
2021/05/21 10:54:28;;;;;;;5.72;1.73;;;;;;;23.14;38.06;99055.44;5034880;28;20071;-78
2021/05/21 10:57:20;;;;;;;4.80;1.23;;;;;;;23.08;38.13;99062.78;5035904;28;20033;-77
2021/05/21 10:59:55;;;;;;;5.82;1.63;;;;;;;22.93;38.25;99056.78;5030944;28;20041;-77
2021/05/21 11:02:23;;;;;;;3.30;0.98;;;;;;;22.85;38.53;99074.88;5035314;28;20480;-77
2021/05/21 11:04:50;;;;;;;5.10;1.08;;;;;;;23.00;38.12;99081.66;5035136;28;20037;-78
2021/05/21 11:07:38;;;;;;;4.38;1.23;;;;;;;22.71;38.53;99084.34;5050014;28;20025;-76
2021/05/21 11:10:05;;;;;;;6.20;1.17;;;;;;;23.04;38.06;99081.56;5035626;28;20521;-78
2021/05/21 11:12:45;;;;;;;4.47;1.55;;;;;;;23.31;37.76;99082.03;5034129;28;20080;-79
2021/05/21 11:15:33;;;;;;;3.92;1.33;;;;;;;23.19;37.76;99096.69;5034675;28;20030;-77
2021/05/21 11:18:20;;;;;;;9.45;2.47;;;;;;;23.23;37.91;99092.59;5033046;28;20029;-78
2021/05/21 11:21:04;;;;;;;7.63;1.42;;;;;;;22.32;38.54;99086.06;5035023;28;20024;-77
2021/05/21 11:23:47;;;;;;;3.78;1.23;;;;;;;22.82;38.29;99096.03;5049521;28;20026;-78
2021/05/21 11:26:13;;;;;;;4.35;1.40;;;;;;;23.30;38.18;99110.34;5035034;28;20017;-77
2021/05/21 11:28:49;;;;;;;3.97;1.85;;;;;;;23.44;38.25;99101.63;5035128;28;20021;-77
2021/05/21 11:31:19;;;;;;;3.03;1.80;;;;;;;23.65;37.71;99095.44;5034692;28;20025;-81
2021/05/21 11:33:48;;;;;;;3.83;1.42;;;;;;;23.65;37.53;99106.59;5032743;28;20399;-79
2021/05/21 11:36:14;;;;;;;5.45;1.00;;;;;;;23.69;37.50;99107.31;5034534;28;20032;-79
2021/05/21 11:38:39;;;;;;;6.05;1.42;;;;;;;23.78;37.18;99115.03;5034733;28;20025;-78